< Typhoon 195216 1952 Season Typhoon 195218 >
Typhoon 195217 (TRIX)
General InformationTrack Information on Google Maps || Disaster Info.ResourceGoogle EarthGE AnimationAtom FeedGeoJSON
Detalied Best Track (Time Zone = UTC)
Year Month Day Hour Lat. Long. Pressure (hPa) Wind (kt) Class Image Chart
1952 10 16 00 8.7 136.2 1004 0 2 -- Chart
1952 10 16 06 8.9 135.9 1001 0 9 -- Chart
1952 10 16 12 9.0 135.6 1001 0 9 -- Chart
1952 10 16 18 9.1 135.3 1001 0 9 -- Chart
1952 10 17 00 9.2 135.1 1001 0 9 -- Chart
1952 10 17 06 9.4 134.8 1001 0 9 -- Chart
1952 10 17 12 9.7 134.3 998 0 9 -- Chart
1952 10 17 18 10.0 133.8 996 0 9 -- Chart
1952 10 18 00 10.4 133.3 994 0 9 -- Chart
1952 10 18 06 10.6 132.7 987 0 9 -- Chart
1952 10 18 12 10.8 132.1 985 0 9 -- Chart
1952 10 18 18 11.0 131.5 980 0 9 -- Chart
1952 10 19 00 11.1 130.8 974 0 9 -- Chart
1952 10 19 06 11.2 130.1 965 0 9 -- Chart
1952 10 19 12 11.3 129.5 965 0 9 -- Chart
1952 10 19 18 11.4 128.9 965 0 9 -- Chart
1952 10 20 00 11.5 128.2 965 0 9 -- Chart
1952 10 20 06 12.2 127.2 965 0 9 -- Chart
1952 10 20 12 12.8 126.1 965 0 9 -- Chart
1952 10 20 18 13.1 125.5 965 0 9 -- Chart
1952 10 21 00 13.4 125.1 965 0 9 -- Chart
1952 10 21 06 13.2 124.1 965 0 9 -- Chart
1952 10 21 12 13.5 123.4 965 0 9 -- Chart
1952 10 21 18 13.4 122.4 965 0 9 -- Chart
1952 10 22 00 13.2 121.5 965 0 9 -- Chart
1952 10 22 06 13.3 120.3 965 0 9 -- Chart
1952 10 22 12 13.5 119.4 965 0 9 -- Chart
1952 10 22 18 13.5 118.3 965 0 9 -- Chart
1952 10 23 00 13.5 117.2 965 0 9 -- Chart
1952 10 23 06 13.4 116.0 965 0 9 -- Chart
1952 10 23 12 13.5 114.8 965 0 9 -- Chart
1952 10 23 18 13.6 113.4 965 0 9 -- Chart
1952 10 24 00 13.9 112.5 967 0 9 -- Chart
1952 10 24 06 14.2 111.8 967 0 9 -- Chart
1952 10 24 12 14.5 110.7 970 0 9 -- Chart
1952 10 24 18 14.5 109.0 970 0 9 -- Chart
1952 10 25 00 14.3 107.5 975 0 9 -- Chart
1952 10 25 06 14.8 105.8 985 0 9 -- Chart
1952 10 25 12 15.3 103.1 1000 0 9 -- Chart
Japan Meteorological Agency Best Track Data | Correction Date : 1989-06-01
< Typhoon 195216 1952 Season Typhoon 195218 >

Help